createdAt,value
2018-01-18T00:00:44.532Z,19.73
2018-01-18T00:01:44.510Z,19.74
2018-01-18T00:02:44.489Z,19.71
2018-01-18T00:03:44.466Z,19.82
2018-01-18T00:04:44.445Z,19.69
2018-01-18T00:05:44.424Z,19.76
2018-01-18T00:06:44.401Z,19.79
2018-01-18T00:07:44.378Z,19.67
2018-01-18T00:08:44.358Z,19.63
2018-01-18T00:09:44.336Z,19.69
2018-01-18T00:10:44.315Z,19.66
2018-01-18T00:11:44.292Z,19.74
2018-01-18T00:12:44.269Z,19.73
2018-01-18T00:13:44.249Z,19.56
2018-01-18T00:14:44.227Z,19.51
2018-01-18T00:15:44.204Z,19.56
2018-01-18T00:16:44.182Z,19.58
2018-01-18T00:17:44.161Z,19.66
2018-01-18T00:18:44.138Z,19.59
2018-01-18T00:19:44.117Z,19.64
2018-01-18T00:20:44.095Z,19.58
2018-01-18T00:21:44.072Z,19.66
2018-01-18T00:22:44.052Z,19.56
2018-01-18T00:23:44.031Z,19.55
2018-01-18T00:24:44.007Z,19.51
2018-01-18T00:25:43.985Z,19.63
2018-01-18T00:26:43.964Z,19.55
2018-01-18T00:27:43.941Z,19.55
2018-01-18T00:28:43.919Z,19.44
2018-01-18T00:29:43.898Z,19.58
2018-01-18T00:30:43.876Z,19.66
2018-01-18T00:31:43.853Z,19.59
2018-01-18T00:32:43.832Z,19.64
2018-01-18T00:33:43.848Z,19.63
2018-01-18T00:34:43.788Z,19.70
2018-01-18T00:35:43.767Z,19.59
2018-01-18T00:36:43.745Z,19.64
2018-01-18T00:37:43.722Z,19.70
2018-01-18T00:38:43.702Z,19.58
2018-01-18T00:39:43.679Z,19.67
2018-01-18T00:40:43.659Z,19.63
2018-01-18T00:41:43.635Z,19.67
2018-01-18T00:42:43.614Z,19.48
2018-01-18T00:43:43.594Z,19.27
2018-01-18T00:44:43.571Z,19.29
2018-01-18T00:45:43.549Z,19.31
2018-01-18T00:46:43.527Z,19.14
2018-01-18T00:47:43.504Z,19.11
2018-01-18T00:48:43.483Z,19.16
2018-01-18T00:49:43.461Z,19.11
2018-01-18T00:50:43.439Z,19.07
2018-01-18T00:51:43.417Z,19.16
2018-01-18T00:52:43.396Z,19.21
2018-01-18T00:53:43.372Z,19.24
2018-01-18T00:54:43.349Z,19.18
2018-01-18T00:55:43.326Z,19.18
2018-01-18T00:56:43.304Z,19.21
2018-01-18T00:57:43.283Z,19.33
2018-01-18T00:58:43.262Z,19.26
2018-01-18T00:59:43.236Z,19.27
2018-01-18T01:00:43.215Z,19.22
2018-01-18T01:01:43.192Z,19.22
2018-01-18T01:02:43.170Z,19.26
2018-01-18T01:03:43.147Z,19.16
2018-01-18T01:04:43.126Z,19.14
2018-01-18T01:05:43.104Z,19.19
2018-01-18T01:06:43.081Z,19.16
2018-01-18T01:07:43.057Z,19.16
2018-01-18T01:08:43.036Z,19.19
2018-01-18T01:09:43.013Z,19.18
2018-01-18T01:10:42.992Z,19.21
2018-01-18T01:11:42.969Z,19.14
2018-01-18T01:12:42.945Z,19.04
2018-01-18T01:13:42.924Z,19.08
2018-01-18T01:14:42.902Z,19.08
2018-01-18T01:15:42.878Z,19.15
2018-01-18T01:16:42.857Z,19.11
2018-01-18T01:17:42.834Z,19.11
2018-01-18T01:18:42.813Z,19.08
2018-01-18T01:19:42.790Z,19.00
2018-01-18T01:20:42.767Z,19.12
2018-01-18T01:21:42.746Z,19.04
2018-01-18T01:22:42.724Z,19.07
2018-01-18T01:23:42.701Z,18.99
2018-01-18T01:24:42.679Z,19.08
2018-01-18T01:25:42.657Z,19.12
2018-01-18T01:26:42.635Z,19.09
2018-01-18T01:27:42.612Z,19.15
2018-01-18T01:28:42.593Z,19.00
2018-01-18T01:29:42.567Z,19.02
2018-01-18T01:30:42.546Z,19.00
2018-01-18T01:31:42.522Z,19.00
2018-01-18T01:32:42.500Z,18.95
2018-01-18T01:33:42.481Z,18.92
2018-01-18T01:34:42.456Z,18.89
2018-01-18T01:35:42.434Z,18.88
2018-01-18T01:36:42.411Z,19.00
2018-01-18T01:37:42.390Z,18.93
2018-01-18T01:38:42.366Z,18.95
2018-01-18T01:39:42.343Z,18.93
2018-01-18T01:40:42.322Z,18.89
2018-01-18T01:41:42.306Z,18.78
2018-01-18T01:42:42.277Z,18.81
2018-01-18T01:43:42.254Z,18.89
2018-01-18T01:44:42.234Z,18.84
2018-01-18T01:45:42.211Z,18.95
2018-01-18T01:46:42.189Z,18.81
2018-01-18T01:47:42.164Z,18.81
2018-01-18T01:48:42.143Z,18.86
2018-01-18T01:49:42.121Z,18.78
2018-01-18T01:50:42.099Z,18.81
2018-01-18T01:51:42.076Z,18.80
2018-01-18T01:52:42.054Z,18.88
2018-01-18T01:53:42.033Z,18.78
2018-01-18T01:54:42.009Z,18.88
2018-01-18T01:55:41.986Z,18.83
2018-01-18T01:56:41.962Z,18.75
2018-01-18T01:57:41.942Z,18.83
2018-01-18T01:58:41.920Z,18.93
2018-01-18T01:59:41.899Z,18.92
2018-01-18T02:00:41.874Z,18.88
2018-01-18T02:01:41.861Z,18.86
2018-01-18T02:02:41.830Z,18.88
2018-01-18T02:03:41.806Z,18.89
2018-01-18T02:04:41.785Z,18.90
2018-01-18T02:05:41.763Z,18.86
2018-01-18T02:06:41.740Z,18.80
2018-01-18T02:07:41.724Z,18.83
2018-01-18T02:08:41.694Z,18.77
2018-01-18T02:09:41.673Z,18.74
2018-01-18T02:10:41.649Z,18.83
2018-01-18T02:11:41.626Z,18.74
2018-01-18T02:12:41.604Z,18.80
2018-01-18T02:13:41.583Z,18.73
2018-01-18T02:14:41.561Z,18.70
2018-01-18T02:15:41.538Z,18.74
2018-01-18T02:16:41.514Z,18.78
2018-01-18T02:17:41.493Z,18.83
2018-01-18T02:18:41.469Z,18.74
2018-01-18T02:19:41.448Z,18.81
2018-01-18T02:20:41.425Z,18.65
2018-01-18T02:21:41.403Z,18.75
2018-01-18T02:22:41.380Z,18.68
2018-01-18T02:23:41.357Z,18.77
2018-01-18T02:24:41.338Z,18.77
2018-01-18T02:25:41.313Z,18.58
2018-01-18T02:26:41.290Z,18.68
2018-01-18T02:27:41.268Z,18.73
2018-01-18T02:28:41.245Z,18.68
2018-01-18T02:29:41.224Z,18.63
2018-01-18T02:30:41.203Z,18.55
2018-01-18T02:31:41.178Z,18.66
2018-01-18T02:32:41.157Z,18.80
2018-01-18T02:33:41.133Z,18.58
2018-01-18T02:34:41.111Z,18.66
2018-01-18T02:35:41.088Z,18.65
2018-01-18T02:36:41.064Z,18.59
2018-01-18T02:37:41.043Z,18.56
2018-01-18T02:38:41.020Z,18.55
2018-01-18T02:39:40.997Z,18.56
2018-01-18T02:40:40.974Z,18.60
2018-01-18T02:41:40.951Z,18.58
2018-01-18T02:42:40.931Z,18.50
2018-01-18T02:43:40.906Z,18.37
2018-01-18T02:44:40.885Z,18.47
2018-01-18T02:45:40.861Z,18.52
2018-01-18T02:46:40.839Z,18.50
2018-01-18T02:47:40.817Z,18.52
2018-01-18T02:48:40.792Z,18.55
2018-01-18T02:49:40.771Z,18.55
2018-01-18T02:50:40.749Z,18.50
2018-01-18T02:51:40.725Z,18.58
2018-01-18T02:52:40.703Z,18.44
2018-01-18T02:53:40.680Z,18.38
2018-01-18T02:54:40.657Z,18.47
2018-01-18T02:55:40.634Z,18.45
2018-01-18T02:56:40.611Z,18.56
2018-01-18T02:57:40.597Z,18.55
2018-01-18T02:58:40.566Z,18.56
2018-01-18T02:59:40.543Z,18.50
2018-01-18T03:00:40.520Z,18.50
2018-01-18T03:01:40.497Z,18.53
2018-01-18T03:02:40.479Z,18.50
2018-01-18T03:03:40.452Z,18.45
2018-01-18T03:04:40.430Z,18.49
2018-01-18T03:05:40.408Z,18.40
2018-01-18T03:06:40.384Z,18.31
2018-01-18T03:07:40.361Z,18.40
2018-01-18T03:08:40.338Z,18.33
2018-01-18T03:09:40.315Z,18.35
2018-01-18T03:10:40.293Z,18.37
2018-01-18T03:11:40.272Z,18.25
2018-01-18T03:12:40.247Z,18.34
2018-01-18T03:13:40.224Z,18.31
2018-01-18T03:14:40.202Z,18.29
2018-01-18T03:15:40.177Z,18.40
2018-01-18T03:16:40.156Z,18.28
2018-01-18T03:17:40.134Z,18.33
2018-01-18T03:18:40.111Z,18.29
2018-01-18T03:19:40.087Z,18.22
2018-01-18T03:20:40.065Z,18.28
2018-01-18T03:21:40.041Z,18.40
2018-01-18T03:22:40.019Z,18.35
2018-01-18T03:23:39.994Z,18.35
2018-01-18T03:24:39.972Z,18.35
2018-01-18T03:25:39.950Z,18.33
2018-01-18T03:26:39.928Z,18.29
2018-01-18T03:27:39.904Z,18.38
2018-01-18T03:28:39.881Z,18.33
2018-01-18T03:29:39.859Z,18.35
2018-01-18T03:30:39.839Z,18.31
2018-01-18T03:31:39.813Z,18.19
2018-01-18T03:32:39.791Z,18.22
2018-01-18T03:33:39.768Z,18.20
2018-01-18T03:34:39.745Z,18.20
2018-01-18T03:35:39.722Z,18.20
2018-01-18T03:36:39.699Z,18.15
2018-01-18T03:37:39.677Z,18.22
2018-01-18T03:38:39.654Z,18.26
2018-01-18T03:39:39.630Z,18.23
2018-01-18T03:40:39.608Z,18.33
2018-01-18T03:41:39.585Z,18.33
2018-01-18T03:42:39.562Z,18.31
2018-01-18T03:43:39.538Z,18.34
2018-01-18T03:44:39.514Z,18.38
2018-01-18T03:45:39.493Z,18.43
2018-01-18T03:46:39.469Z,18.43
2018-01-18T03:47:39.446Z,18.56
2018-01-18T03:48:39.422Z,18.44
2018-01-18T03:49:39.400Z,18.60
2018-01-18T03:50:39.376Z,18.47
2018-01-18T03:51:39.355Z,18.50
2018-01-18T03:52:39.334Z,18.49
2018-01-18T03:53:39.310Z,18.40
2018-01-18T03:54:39.286Z,18.45
2018-01-18T03:55:39.261Z,18.45
2018-01-18T03:56:39.238Z,18.33
2018-01-18T03:57:39.215Z,18.34
2018-01-18T03:58:39.193Z,18.45
2018-01-18T03:59:39.178Z,18.44
2018-01-18T04:00:39.146Z,18.45
2018-01-18T04:01:39.122Z,18.65
2018-01-18T04:02:39.101Z,18.63
2018-01-18T04:03:39.077Z,18.68
2018-01-18T04:04:39.053Z,18.68
2018-01-18T04:05:39.032Z,18.63
2018-01-18T04:06:39.007Z,18.66
2018-01-18T04:07:38.983Z,18.66
2018-01-18T04:08:38.961Z,18.68
2018-01-18T04:09:38.939Z,18.62
2018-01-18T04:10:38.916Z,18.65
2018-01-18T04:11:38.892Z,18.75
2018-01-18T04:12:38.870Z,18.59
2018-01-18T04:13:38.848Z,18.71
2018-01-18T04:14:38.825Z,18.74
2018-01-18T04:15:38.800Z,18.80
2018-01-18T04:16:38.778Z,18.81
2018-01-18T04:17:38.756Z,18.81
2018-01-18T04:18:38.733Z,18.77
2018-01-18T04:19:38.710Z,18.74
2018-01-18T04:20:38.687Z,18.78
2018-01-18T04:21:38.665Z,18.75
2018-01-18T04:22:38.641Z,18.77
2018-01-18T04:23:38.619Z,18.83
2018-01-18T04:24:38.597Z,18.78
2018-01-18T04:25:38.573Z,18.90
2018-01-18T04:26:38.551Z,18.90
2018-01-18T04:27:38.528Z,18.86
2018-01-18T04:28:38.555Z,18.86
2018-01-18T04:29:38.483Z,18.96
2018-01-18T04:30:38.461Z,18.81
2018-01-18T04:31:38.438Z,18.80
2018-01-18T04:32:38.414Z,18.89
2018-01-18T04:33:38.393Z,18.90
2018-01-18T04:34:38.370Z,18.92
2018-01-18T04:35:38.345Z,18.88
2018-01-18T04:36:38.324Z,19.00
2018-01-18T04:37:38.301Z,19.09
2018-01-18T04:38:38.279Z,18.96
2018-01-18T04:39:38.255Z,18.92
2018-01-18T04:40:38.233Z,18.92
2018-01-18T04:41:38.213Z,18.93
2018-01-18T04:42:38.188Z,18.86
2018-01-18T04:43:38.164Z,18.71
2018-01-18T04:44:38.142Z,18.80
2018-01-18T04:45:38.120Z,18.73
2018-01-18T04:46:38.097Z,18.70
2018-01-18T04:47:38.074Z,18.88
2018-01-18T04:48:38.051Z,18.83
2018-01-18T04:49:38.028Z,18.88
2018-01-18T04:50:38.007Z,18.90
2018-01-18T04:51:37.984Z,18.90
2018-01-18T04:52:37.960Z,18.90
2018-01-18T04:53:37.937Z,18.70
2018-01-18T04:54:37.916Z,18.78
2018-01-18T04:55:37.893Z,18.86
2018-01-18T04:56:37.871Z,18.78
2018-01-18T04:57:37.851Z,18.80
2018-01-18T04:58:37.824Z,18.88
2018-01-18T04:59:37.802Z,18.84
2018-01-18T05:00:37.779Z,18.98
2018-01-18T05:01:37.757Z,18.88
2018-01-18T05:02:37.735Z,18.86
2018-01-18T05:03:37.711Z,18.95
2018-01-18T05:04:37.689Z,18.86
2018-01-18T05:05:37.721Z,18.92
2018-01-18T05:06:37.645Z,18.88
2018-01-18T05:07:37.622Z,18.78
2018-01-18T05:08:37.599Z,18.86
2018-01-18T05:09:37.577Z,18.90
2018-01-18T05:10:37.555Z,18.83
2018-01-18T05:11:37.532Z,18.93
2018-01-18T05:12:37.509Z,18.78
2018-01-18T05:13:37.486Z,18.89
2018-01-18T05:14:37.465Z,18.84
2018-01-18T05:15:37.442Z,18.89
2018-01-18T05:16:37.421Z,18.90
2018-01-18T05:17:37.397Z,18.80
2018-01-18T05:18:37.375Z,18.60
2018-01-18T05:19:37.352Z,18.71
2018-01-18T05:20:37.329Z,18.83
2018-01-18T05:21:37.307Z,18.93
2018-01-18T05:22:37.285Z,18.70
2018-01-18T05:23:37.261Z,18.68
2018-01-18T05:24:37.239Z,18.59
2018-01-18T05:25:37.216Z,18.49
2018-01-18T05:26:37.197Z,18.70
2018-01-18T05:27:37.171Z,18.65
2018-01-18T05:28:37.148Z,18.92
2018-01-18T05:29:37.126Z,18.90
2018-01-18T05:30:37.103Z,18.81
2018-01-18T05:31:37.080Z,18.86
2018-01-18T05:32:37.057Z,18.80
2018-01-18T05:33:37.034Z,18.92
2018-01-18T05:34:37.014Z,18.83
2018-01-18T05:35:36.989Z,18.83
2018-01-18T05:36:36.967Z,18.90
2018-01-18T05:37:36.943Z,19.08
2018-01-18T05:38:36.922Z,18.89
2018-01-18T05:39:36.900Z,19.02
2018-01-18T05:40:36.878Z,19.15
2018-01-18T05:41:36.854Z,19.09
2018-01-18T05:42:36.831Z,19.11
2018-01-18T05:43:36.808Z,19.24
2018-01-18T05:44:36.785Z,19.11
2018-01-18T05:45:36.762Z,19.00
2018-01-18T05:46:36.740Z,19.00
2018-01-18T05:47:36.716Z,18.95
2018-01-18T05:48:36.695Z,19.08
2018-01-18T05:49:36.672Z,19.18
2018-01-18T05:50:36.653Z,19.22
2018-01-18T05:51:36.626Z,19.19
2018-01-18T05:52:36.605Z,19.18
2018-01-18T05:53:36.580Z,19.26
2018-01-18T05:54:36.558Z,19.34
2018-01-18T05:55:36.536Z,19.12
2018-01-18T05:56:36.512Z,19.18
2018-01-18T05:57:36.491Z,19.37
2018-01-18T05:58:36.469Z,19.29
2018-01-18T05:59:36.444Z,19.22
2018-01-18T06:00:36.421Z,19.18
2018-01-18T06:01:36.400Z,19.19
2018-01-18T06:02:36.378Z,19.41
2018-01-18T06:03:36.354Z,19.34
2018-01-18T06:04:36.332Z,19.44
2018-01-18T06:05:36.312Z,19.41
2018-01-18T06:06:36.288Z,19.36
2018-01-18T06:07:36.265Z,19.52
2018-01-18T06:08:36.241Z,19.47
2018-01-18T06:09:36.220Z,19.29
2018-01-18T06:10:36.198Z,19.40
2018-01-18T06:11:36.173Z,19.49
2018-01-18T06:12:36.152Z,19.45
2018-01-18T06:13:36.132Z,19.40
2018-01-18T06:14:36.108Z,19.33
2018-01-18T06:15:36.084Z,19.52
2018-01-18T06:16:36.062Z,19.48
2018-01-18T06:17:36.040Z,19.55
2018-01-18T06:18:36.018Z,19.58
2018-01-18T06:19:35.994Z,19.49
2018-01-18T06:20:35.972Z,19.40
2018-01-18T06:21:35.950Z,19.51
2018-01-18T06:22:35.926Z,19.47
2018-01-18T06:23:35.904Z,19.44
2018-01-18T06:24:35.881Z,19.44
2018-01-18T06:25:35.862Z,19.49
2018-01-18T06:26:35.837Z,19.58
2018-01-18T06:27:35.813Z,19.59
2018-01-18T06:28:35.791Z,19.64
2018-01-18T06:29:35.769Z,19.63
2018-01-18T06:30:35.746Z,19.58
2018-01-18T06:31:35.724Z,19.63
2018-01-18T06:32:35.701Z,19.47
2018-01-18T06:33:35.679Z,19.51
2018-01-18T06:34:35.657Z,19.49
2018-01-18T06:35:35.634Z,19.47
2018-01-18T06:36:35.610Z,19.51
2018-01-18T06:37:35.588Z,19.55
2018-01-18T06:38:35.566Z,19.71
2018-01-18T06:39:35.543Z,19.63
2018-01-18T06:40:35.522Z,19.69
2018-01-18T06:41:35.498Z,19.62
2018-01-18T06:42:35.477Z,19.48
2018-01-18T06:43:35.453Z,19.48
2018-01-18T06:44:35.431Z,19.45
2018-01-18T06:45:35.413Z,19.44
2018-01-18T06:46:35.387Z,19.47
2018-01-18T06:47:35.362Z,19.45
2018-01-18T06:48:35.341Z,19.49
2018-01-18T06:49:35.318Z,19.55
2018-01-18T06:50:35.297Z,19.63
2018-01-18T06:51:35.273Z,19.69
2018-01-18T06:52:35.252Z,19.79
2018-01-18T06:53:35.229Z,19.69
2018-01-18T06:54:35.212Z,19.54
2018-01-18T06:55:35.182Z,19.64
2018-01-18T06:56:35.161Z,19.71
2018-01-18T06:57:35.137Z,19.71
2018-01-18T06:58:35.117Z,19.70
2018-01-18T06:59:35.093Z,19.74
2018-01-18T07:00:35.070Z,19.63
2018-01-18T07:01:35.048Z,19.59
2018-01-18T07:02:35.026Z,19.73
2018-01-18T07:03:35.003Z,19.67
2018-01-18T07:04:34.980Z,19.67
2018-01-18T07:05:34.959Z,19.59
2018-01-18T07:06:34.936Z,19.52
2018-01-18T07:07:34.914Z,19.56
2018-01-18T07:08:34.889Z,19.62
2018-01-18T07:09:34.868Z,19.56
2018-01-18T07:10:34.846Z,19.63
2018-01-18T07:11:34.822Z,19.64
2018-01-18T07:12:34.800Z,19.73
2018-01-18T07:13:34.777Z,19.73
2018-01-18T07:14:34.756Z,19.79
2018-01-18T07:15:34.732Z,19.77
2018-01-18T07:16:34.710Z,19.81
2018-01-18T07:17:34.688Z,19.82
2018-01-18T07:18:34.665Z,19.82
2018-01-18T07:19:34.642Z,19.76
2018-01-18T07:20:34.620Z,19.79
2018-01-18T07:21:34.598Z,19.81
2018-01-18T07:22:34.576Z,19.76
2018-01-18T07:23:34.553Z,19.71
2018-01-18T07:24:34.530Z,19.69
2018-01-18T07:25:34.510Z,19.73
2018-01-18T07:26:34.487Z,19.71
2018-01-18T07:27:34.467Z,19.70
2018-01-18T07:28:34.440Z,19.71
2018-01-18T07:29:34.419Z,19.76
2018-01-18T07:30:34.395Z,19.88
2018-01-18T07:31:34.373Z,19.79
2018-01-18T07:32:34.350Z,19.77
2018-01-18T07:33:34.328Z,19.81
2018-01-18T07:34:34.306Z,19.84
2018-01-18T07:35:34.283Z,19.82
2018-01-18T07:36:34.266Z,19.84
2018-01-18T07:37:34.238Z,19.77
2018-01-18T07:38:34.223Z,19.85
2018-01-18T07:39:34.192Z,19.77
2018-01-18T07:40:34.171Z,19.84
2018-01-18T07:41:34.150Z,19.85
2018-01-18T07:42:34.126Z,19.69
2018-01-18T07:43:34.103Z,19.74
2018-01-18T07:44:34.081Z,19.73
2018-01-18T07:45:34.058Z,19.91
2018-01-18T07:46:34.037Z,19.79
2018-01-18T07:47:34.013Z,19.94
2018-01-18T07:48:33.991Z,19.82
2018-01-18T07:49:33.968Z,19.95
2018-01-18T07:50:33.946Z,19.89
2018-01-18T07:51:33.924Z,19.95
2018-01-18T07:52:33.902Z,20.06
2018-01-18T07:53:33.883Z,20.02
2018-01-18T07:54:33.857Z,19.84
2018-01-18T07:55:33.834Z,19.94
2018-01-18T07:56:33.812Z,19.86
2018-01-18T07:57:33.790Z,19.89
2018-01-18T07:58:33.767Z,19.86
2018-01-18T07:59:33.786Z,19.91
2018-01-18T08:00:33.723Z,19.79
2018-01-18T08:01:33.700Z,20.00
2018-01-18T08:02:33.678Z,20.00
2018-01-18T08:03:33.655Z,20.07
2018-01-18T08:04:33.632Z,20.02
2018-01-18T08:05:33.611Z,19.89
2018-01-18T08:06:33.589Z,19.89
2018-01-18T08:07:33.565Z,19.94
2018-01-18T08:08:33.543Z,19.89
2018-01-18T08:09:33.522Z,19.99
2018-01-18T08:10:33.499Z,19.91
2018-01-18T08:11:33.477Z,20.09
2018-01-18T08:12:33.454Z,20.04
2018-01-18T08:13:33.432Z,20.07
2018-01-18T08:14:33.412Z,20.11
2018-01-18T08:15:33.387Z,20.24
2018-01-18T08:16:33.365Z,20.16
2018-01-18T08:17:33.343Z,20.28
2018-01-18T08:18:33.321Z,20.09
2018-01-18T08:19:33.298Z,20.03
2018-01-18T08:20:33.275Z,20.03
2018-01-18T08:21:33.254Z,19.95
2018-01-18T08:22:33.230Z,20.03
2018-01-18T08:23:33.208Z,19.89
2018-01-18T08:24:33.186Z,19.89
2018-01-18T08:25:33.165Z,20.03
2018-01-18T08:26:33.145Z,20.25
2018-01-18T08:27:33.120Z,20.29
2018-01-18T08:28:33.098Z,20.29
2018-01-18T08:29:33.076Z,20.26
2018-01-18T08:30:33.054Z,20.10
2018-01-18T08:31:33.031Z,20.07
2018-01-18T08:32:33.009Z,20.03
2018-01-18T08:33:32.988Z,20.04
2018-01-18T08:34:32.964Z,20.09
2018-01-18T08:35:32.942Z,20.18
2018-01-18T08:36:32.920Z,20.10
2018-01-18T08:37:32.898Z,20.04
2018-01-18T08:38:32.875Z,20.06
2018-01-18T08:39:32.853Z,19.91
2018-01-18T08:40:32.831Z,19.95
2018-01-18T08:41:32.808Z,19.86
2018-01-18T08:42:32.786Z,20.13
2018-01-18T08:43:32.764Z,20.16
2018-01-18T08:44:32.742Z,20.24
2018-01-18T08:45:32.721Z,20.24
2018-01-18T08:46:32.699Z,20.18
2018-01-18T08:47:32.674Z,20.29
2018-01-18T08:48:32.654Z,20.24
2018-01-18T08:49:32.631Z,20.18
2018-01-18T08:50:32.610Z,20.09
2018-01-18T08:51:32.587Z,20.07
2018-01-18T08:52:32.564Z,20.03
2018-01-18T08:53:32.544Z,20.21
2018-01-18T08:54:32.522Z,20.16
2018-01-18T08:55:32.501Z,20.16
2018-01-18T08:56:32.477Z,20.28
2018-01-18T08:57:32.455Z,20.37
2018-01-18T08:58:32.433Z,20.52
2018-01-18T08:59:32.409Z,20.58
2018-01-18T09:00:32.389Z,20.56
2018-01-18T09:01:32.367Z,20.56
2018-01-18T09:02:32.345Z,20.47
2018-01-18T09:03:32.323Z,20.51
2018-01-18T09:04:32.300Z,20.36
2018-01-18T09:05:32.278Z,20.16
2018-01-18T09:06:32.256Z,20.19
2018-01-18T09:07:32.234Z,20.32
2018-01-18T09:08:32.212Z,20.09
2018-01-18T09:09:32.190Z,20.10
2018-01-18T09:10:32.168Z,20.07
2018-01-18T09:11:32.146Z,20.16
2018-01-18T09:12:32.123Z,20.29
2018-01-18T09:13:32.102Z,20.21
2018-01-18T09:14:32.079Z,20.22
2018-01-18T09:15:32.056Z,20.26
2018-01-18T09:16:32.035Z,20.25
2018-01-18T09:17:32.013Z,20.03
2018-01-18T09:18:31.991Z,20.11
2018-01-18T09:19:31.974Z,20.03
2018-01-18T09:20:31.946Z,20.11
2018-01-18T09:21:31.924Z,20.06
2018-01-18T09:22:31.903Z,19.99
2018-01-18T09:23:31.880Z,19.92
2018-01-18T09:24:31.858Z,20.14
2018-01-18T09:25:31.836Z,20.26
2018-01-18T09:26:31.815Z,20.36
2018-01-18T09:27:31.791Z,20.28
2018-01-18T09:28:31.769Z,20.36
2018-01-18T09:29:31.747Z,20.37
2018-01-18T09:30:31.725Z,20.37
2018-01-18T09:31:31.702Z,20.32
2018-01-18T09:32:31.680Z,20.21
2018-01-18T09:33:31.659Z,20.10
2018-01-18T09:34:31.636Z,20.09
2018-01-18T09:35:31.617Z,20.03
2018-01-18T09:36:31.593Z,19.86
2018-01-18T09:37:31.570Z,19.84
2018-01-18T09:38:31.548Z,19.88
2018-01-18T09:39:31.553Z,20.07
2018-01-18T09:40:31.504Z,20.13
2018-01-18T09:41:31.482Z,20.25
2018-01-18T09:42:31.460Z,20.25
2018-01-18T09:43:31.437Z,20.07
2018-01-18T09:44:31.415Z,20.07
2018-01-18T09:45:31.393Z,20.22
2018-01-18T09:46:31.372Z,20.04
2018-01-18T09:47:31.354Z,19.88
2018-01-18T09:48:31.325Z,20.07
2018-01-18T09:49:31.306Z,19.91
2018-01-18T09:50:31.282Z,19.85
2018-01-18T09:51:31.259Z,19.94
2018-01-18T09:52:31.238Z,20.09
2018-01-18T09:53:31.222Z,19.92
2018-01-18T09:54:31.194Z,20.22
2018-01-18T09:55:31.171Z,20.29
2018-01-18T09:56:31.149Z,20.34
2018-01-18T09:57:31.129Z,20.28
2018-01-18T09:58:31.105Z,20.22
2018-01-18T09:59:31.083Z,19.95
2018-01-18T10:00:31.060Z,19.95
2018-01-18T10:01:31.039Z,19.89
2018-01-18T10:02:31.019Z,19.91
2018-01-18T10:03:30.993Z,19.96
2018-01-18T10:04:30.972Z,19.94
2018-01-18T10:05:30.950Z,19.96
2018-01-18T10:06:30.928Z,20.06
2018-01-18T10:07:30.905Z,20.34
2018-01-18T10:08:30.883Z,20.24
2018-01-18T10:09:30.861Z,20.09
2018-01-18T10:10:30.839Z,20.09
2018-01-18T10:11:30.816Z,20.07
2018-01-18T10:12:30.795Z,20.11
2018-01-18T10:13:30.773Z,20.13
2018-01-18T10:14:30.750Z,19.96
2018-01-18T10:15:30.728Z,19.94
2018-01-18T10:16:30.706Z,20.00
2018-01-18T10:17:30.684Z,20.06
2018-01-18T10:18:30.663Z,20.06
2018-01-18T10:19:30.640Z,20.07
2018-01-18T10:20:30.616Z,20.25
2018-01-18T10:21:30.594Z,20.16
2018-01-18T10:22:30.574Z,20.14
2018-01-18T10:23:30.550Z,20.22
2018-01-18T10:24:30.540Z,20.25
2018-01-18T10:25:30.510Z,20.22
2018-01-18T10:26:30.484Z,20.03
2018-01-18T10:27:30.462Z,20.18
2018-01-18T10:28:30.439Z,20.22
2018-01-18T10:29:30.418Z,20.02
2018-01-18T10:30:30.395Z,20.07
2018-01-18T10:31:30.374Z,20.10
2018-01-18T10:32:30.352Z,20.07
2018-01-18T10:33:30.330Z,20.34
2018-01-18T10:34:30.307Z,20.48
2018-01-18T10:35:30.285Z,20.44
2018-01-18T10:36:30.264Z,20.22
2018-01-18T10:37:30.241Z,20.39
2018-01-18T10:38:30.220Z,20.39
2018-01-18T10:39:30.196Z,20.26
2018-01-18T10:40:30.174Z,20.75
2018-01-18T10:41:30.153Z,20.63
2018-01-18T10:42:30.131Z,20.47
2018-01-18T10:43:30.108Z,20.50
2018-01-18T10:44:30.086Z,20.43
2018-01-18T10:45:30.064Z,20.50
2018-01-18T10:46:30.043Z,20.63
2018-01-18T10:47:30.021Z,20.51
2018-01-18T10:48:29.999Z,20.48
2018-01-18T10:49:29.976Z,20.56
2018-01-18T10:50:29.954Z,20.47
2018-01-18T10:51:29.932Z,20.58
2018-01-18T10:52:29.910Z,20.55
2018-01-18T10:53:29.886Z,20.40
2018-01-18T10:54:29.866Z,20.39
2018-01-18T10:55:29.842Z,20.25
2018-01-18T10:56:29.847Z,20.22
2018-01-18T10:57:29.798Z,20.03
2018-01-18T10:58:29.789Z,20.22
2018-01-18T10:59:29.758Z,20.26
2018-01-18T11:00:29.733Z,20.43
2018-01-18T11:01:29.710Z,20.26
2018-01-18T11:02:29.690Z,20.29
2018-01-18T11:03:29.667Z,20.29
2018-01-18T11:04:29.644Z,20.40
2018-01-18T11:05:29.623Z,20.28
2018-01-18T11:06:29.601Z,20.24
2018-01-18T11:07:29.578Z,20.04
2018-01-18T11:08:29.556Z,20.09
2018-01-18T11:09:29.535Z,19.92
2018-01-18T11:10:29.515Z,20.02
2018-01-18T11:11:29.489Z,20.06
2018-01-18T11:12:29.470Z,20.03
2018-01-18T11:13:29.446Z,20.09
2018-01-18T11:14:29.426Z,20.24
2018-01-18T11:15:29.400Z,20.11
2018-01-18T11:16:29.380Z,20.26
2018-01-18T11:17:29.358Z,20.18
2018-01-18T11:18:29.336Z,20.19
2018-01-18T11:19:29.313Z,20.28
2018-01-18T11:20:29.291Z,20.26
2018-01-18T11:21:29.274Z,20.16
2018-01-18T11:22:29.247Z,20.24
2018-01-18T11:23:29.224Z,20.10
2018-01-18T11:24:29.202Z,20.19
2018-01-18T11:25:29.181Z,20.25
2018-01-18T11:26:29.159Z,20.26
2018-01-18T11:27:29.136Z,20.39
2018-01-18T11:28:29.117Z,20.21
2018-01-18T11:29:29.092Z,20.13
2018-01-18T11:30:29.069Z,20.22
2018-01-18T11:31:29.047Z,20.21
2018-01-18T11:32:29.026Z,20.21
2018-01-18T11:33:29.004Z,20.06
2018-01-18T11:34:28.982Z,20.28
2018-01-18T11:35:28.960Z,20.36
2018-01-18T11:36:28.938Z,20.34
2018-01-18T11:37:28.916Z,20.47
2018-01-18T11:38:28.894Z,20.48
2018-01-18T11:39:28.871Z,20.75
2018-01-18T11:40:28.849Z,21.00
2018-01-18T11:41:28.828Z,20.85
2018-01-18T11:42:28.806Z,20.75
2018-01-18T11:43:28.782Z,20.72
2018-01-18T11:44:28.760Z,21.03
2018-01-18T11:45:28.739Z,20.93
2018-01-18T11:46:28.718Z,21.58
2018-01-18T11:47:28.695Z,23.17
2018-01-18T11:48:28.674Z,22.62
2018-01-18T11:49:28.652Z,22.11
2018-01-18T11:50:28.630Z,22.06
2018-01-18T11:51:28.607Z,21.42
2018-01-18T11:52:28.585Z,21.30
2018-01-18T11:53:28.563Z,21.36
2018-01-18T11:54:28.543Z,23.05
2018-01-18T11:55:28.519Z,23.63
2018-01-18T11:56:28.498Z,24.08
2018-01-18T11:57:28.476Z,23.15
2018-01-18T11:58:28.454Z,22.60
2018-01-18T11:59:28.431Z,22.18
2018-01-18T12:00:28.411Z,21.92
2018-01-18T12:01:28.389Z,21.93
2018-01-18T12:02:28.368Z,21.85
2018-01-18T12:03:28.344Z,21.95
2018-01-18T12:04:28.329Z,21.89
2018-01-18T12:05:28.302Z,22.08
2018-01-18T12:06:28.282Z,22.11
2018-01-18T12:07:28.259Z,22.38
2018-01-18T12:08:28.236Z,22.85
2018-01-18T12:09:28.217Z,23.76
2018-01-18T12:10:28.195Z,23.95
2018-01-18T12:11:28.173Z,23.23
2018-01-18T12:12:28.150Z,22.93
2018-01-18T12:13:28.129Z,22.66
2018-01-18T12:14:28.110Z,22.30
2018-01-18T12:15:28.087Z,22.10
2018-01-18T12:16:28.066Z,22.10
2018-01-18T12:17:28.044Z,21.91
2018-01-18T12:18:28.023Z,21.99
2018-01-18T12:19:28.000Z,21.95
2018-01-18T12:20:27.980Z,21.93
2018-01-18T12:21:27.961Z,21.92
2018-01-18T12:22:27.937Z,21.91
2018-01-18T12:23:27.915Z,21.83
2018-01-18T12:24:27.894Z,21.76
2018-01-18T12:25:27.873Z,21.79
2018-01-18T12:26:27.851Z,21.70
2018-01-18T12:27:27.829Z,21.66
2018-01-18T12:28:27.809Z,21.77
2018-01-18T12:29:27.788Z,21.70
2018-01-18T12:30:27.767Z,21.77
2018-01-18T12:31:27.745Z,21.83
2018-01-18T12:32:27.724Z,21.96
2018-01-18T12:33:27.702Z,22.11
2018-01-18T12:34:27.681Z,21.92
2018-01-18T12:35:27.659Z,21.77
2018-01-18T12:36:27.638Z,21.69
2018-01-18T12:37:27.624Z,21.58
2018-01-18T12:38:27.596Z,21.51
2018-01-18T12:39:27.574Z,21.30
2018-01-18T12:40:27.553Z,21.30
2018-01-18T12:41:27.531Z,21.27
2018-01-18T12:42:27.511Z,21.36
2018-01-18T12:43:27.488Z,21.43
2018-01-18T12:44:27.467Z,21.36
2018-01-18T12:45:27.446Z,21.50
2018-01-18T12:46:27.426Z,21.61
2018-01-18T12:47:27.402Z,21.52
2018-01-18T12:48:27.382Z,21.57
2018-01-18T12:49:27.361Z,21.61
2018-01-18T12:50:27.340Z,21.73
2018-01-18T12:51:27.317Z,21.69
2018-01-18T12:52:27.296Z,21.62